createdAt,value
2023-01-15T00:02:17.654Z,19.27
2023-01-15T00:07:39.577Z,18.63
2023-01-15T00:13:01.541Z,19.52
2023-01-15T00:18:23.368Z,18.77
2023-01-15T00:23:45.226Z,20.23
2023-01-15T00:29:07.483Z,18.60
2023-01-15T00:34:29.552Z,16.27
2023-01-15T00:39:51.406Z,14.88
2023-01-15T00:45:13.439Z,17.10
2023-01-15T00:50:35.581Z,14.60
2023-01-15T00:55:57.497Z,14.75
2023-01-15T01:01:19.418Z,13.55
2023-01-15T01:06:41.973Z,12.20
2023-01-15T01:12:04.145Z,13.75
2023-01-15T01:17:26.082Z,12.00
2023-01-15T01:22:49.086Z,15.13
2023-01-15T01:28:11.265Z,12.13
2023-01-15T01:33:33.152Z,11.05
2023-01-15T01:38:55.037Z,12.43
2023-01-15T01:44:32.111Z,11.95
2023-01-15T01:49:59.823Z,13.15
2023-01-15T01:55:24.081Z,10.63
2023-01-15T02:00:49.250Z,10.88
2023-01-15T02:06:14.023Z,13.68
2023-01-15T02:11:36.248Z,10.98
2023-01-15T02:17:24.556Z,12.40
2023-01-15T02:23:11.502Z,13.85
2023-01-15T02:28:36.362Z,10.95
2023-01-15T02:34:03.137Z,10.35
2023-01-15T02:39:28.575Z,12.13
2023-01-15T02:44:53.291Z,14.82
2023-01-15T02:50:17.923Z,14.38
2023-01-15T02:55:44.436Z,13.15
2023-01-15T03:06:51.848Z,13.63
2023-01-15T03:12:19.622Z,15.77
2023-01-15T03:17:53.975Z,12.85
2023-01-15T03:23:18.820Z,14.48
2023-01-15T03:28:42.079Z,15.07
2023-01-15T03:34:04.067Z,14.90
2023-01-15T03:39:25.929Z,12.15
2023-01-15T03:45:17.932Z,14.13
2023-01-15T03:50:48.251Z,11.63
2023-01-15T03:56:30.301Z,13.00
2023-01-15T04:01:53.987Z,11.63
2023-01-15T04:07:16.447Z,12.13
2023-01-15T04:12:38.305Z,10.32
2023-01-15T04:18:00.216Z,13.27
2023-01-15T04:23:23.032Z,10.35
2023-01-15T04:28:45.348Z,10.18
2023-01-15T04:34:07.227Z,10.50
2023-01-15T04:39:29.123Z,10.73
2023-01-15T04:44:50.973Z,9.20
2023-01-15T04:50:12.814Z,9.73
2023-01-15T04:55:34.651Z,9.70
2023-01-15T05:00:57.438Z,8.02
2023-01-15T05:06:19.412Z,9.10
2023-01-15T05:11:41.367Z,7.15
2023-01-15T05:17:03.210Z,7.35
2023-01-15T05:22:25.119Z,8.15
2023-01-15T05:27:47.016Z,6.28
2023-01-15T05:33:08.828Z,7.28
2023-01-15T05:38:30.725Z,6.65
2023-01-15T05:43:52.890Z,6.30
2023-01-15T05:49:17.962Z,6.35
2023-01-15T05:54:39.880Z,6.22
2023-01-15T06:00:01.934Z,5.88
2023-01-15T06:05:23.800Z,6.10
2023-01-15T06:10:46.600Z,5.03
2023-01-15T06:16:09.603Z,4.97
2023-01-15T06:21:33.376Z,6.55
2023-01-15T06:26:55.327Z,4.47
2023-01-15T06:32:17.278Z,4.97
2023-01-15T06:37:39.186Z,5.38
2023-01-15T06:43:01.092Z,4.13
2023-01-15T06:48:24.351Z,5.38
2023-01-15T06:53:46.853Z,4.82
2023-01-15T06:59:08.701Z,3.88
2023-01-15T07:04:30.720Z,5.05
2023-01-15T07:09:52.577Z,4.45
2023-01-15T07:15:14.475Z,4.15
2023-01-15T07:20:36.299Z,5.60
2023-01-15T07:25:58.179Z,3.60
2023-01-15T07:31:20.063Z,4.70
2023-01-15T07:36:42.129Z,5.00
2023-01-15T07:42:04.089Z,4.03
2023-01-15T07:47:27.365Z,4.03
2023-01-15T07:52:51.378Z,5.30
2023-01-15T07:58:14.682Z,4.68
2023-01-15T08:03:36.573Z,3.95
2023-01-15T08:08:58.453Z,4.57
2023-01-15T08:14:20.358Z,5.22
2023-01-15T08:19:42.313Z,4.47
2023-01-15T08:25:05.065Z,5.75
2023-01-15T08:30:26.942Z,4.57
2023-01-15T08:35:48.815Z,4.57
2023-01-15T08:41:11.149Z,4.43
2023-01-15T08:46:33.019Z,4.25
2023-01-15T08:51:54.996Z,4.57
2023-01-15T08:57:16.843Z,6.05
2023-01-15T09:02:38.707Z,4.05
2023-01-15T09:08:00.585Z,5.55
2023-01-15T09:13:22.846Z,5.10
2023-01-15T09:18:44.886Z,5.32
2023-01-15T09:24:07.123Z,5.57
2023-01-15T09:29:29.003Z,7.75
2023-01-15T09:34:50.866Z,5.28
2023-01-15T09:40:31.390Z,3.92
2023-01-15T09:46:16.174Z,5.30
2023-01-15T09:51:48.634Z,5.20
2023-01-15T09:57:13.895Z,6.10
2023-01-15T10:02:45.247Z,5.63
2023-01-15T10:08:16.152Z,5.93
2023-01-15T10:13:45.481Z,6.22
2023-01-15T10:19:08.942Z,6.07
2023-01-15T10:24:38.855Z,6.35
2023-01-15T10:30:17.446Z,6.35
2023-01-15T10:35:57.245Z,6.68
2023-01-15T10:41:54.592Z,6.60
2023-01-15T10:47:20.855Z,5.90
2023-01-15T10:52:47.229Z,6.28
2023-01-15T10:58:10.857Z,9.68
2023-01-15T11:03:37.347Z,6.95
2023-01-15T11:09:09.696Z,6.43
2023-01-15T11:14:43.620Z,7.28
2023-01-15T11:20:33.287Z,7.20
2023-01-15T11:25:56.870Z,8.43
2023-01-15T11:31:18.810Z,8.00
2023-01-15T11:36:40.789Z,8.25
2023-01-15T11:42:15.253Z,6.38
2023-01-15T11:47:37.072Z,8.57
2023-01-15T11:52:59.319Z,8.45
2023-01-15T11:58:22.366Z,9.48
2023-01-15T12:03:44.425Z,8.13
2023-01-15T12:09:31.191Z,7.90
2023-01-15T12:14:59.162Z,8.25
2023-01-15T12:20:30.846Z,11.02
2023-01-15T12:25:58.625Z,8.90
2023-01-15T12:31:29.488Z,8.10
2023-01-15T12:37:14.183Z,11.55
2023-01-15T12:42:37.008Z,9.73
2023-01-15T12:48:14.043Z,10.07
2023-01-15T12:53:43.032Z,9.82
2023-01-15T12:59:33.969Z,11.02
2023-01-15T13:05:14.321Z,10.45
2023-01-15T13:10:39.939Z,9.48
2023-01-15T13:16:20.390Z,9.50
2023-01-15T13:21:44.764Z,10.10
2023-01-15T13:27:12.562Z,10.43
2023-01-15T13:32:42.483Z,12.20
2023-01-15T13:38:06.981Z,11.98
2023-01-15T13:43:34.553Z,10.35
2023-01-15T13:48:56.544Z,9.38
2023-01-15T13:54:23.119Z,8.43
2023-01-15T14:05:34.755Z,10.07
2023-01-15T14:10:56.672Z,11.02
2023-01-15T14:16:59.168Z,10.73
2023-01-15T14:22:45.260Z,10.20
2023-01-15T14:28:14.859Z,10.05
2023-01-15T14:34:03.607Z,9.60
2023-01-15T14:39:47.958Z,12.18
2023-01-15T14:45:12.780Z,11.65
2023-01-15T14:50:38.687Z,13.02
2023-01-15T14:56:15.547Z,11.85
2023-01-15T15:02:35.005Z,9.05
2023-01-15T15:07:57.345Z,6.63
2023-01-15T15:13:33.027Z,7.65
2023-01-15T15:18:59.517Z,7.70
2023-01-15T15:24:31.204Z,9.38
2023-01-15T15:30:06.767Z,9.57
2023-01-15T15:35:30.985Z,9.90
2023-01-15T15:41:04.249Z,8.48
2023-01-15T15:46:30.496Z,8.30
2023-01-15T15:51:54.248Z,9.10
2023-01-15T15:57:18.679Z,8.82
2023-01-15T16:02:40.685Z,7.70
2023-01-15T16:08:17.647Z,9.90
2023-01-15T16:13:47.107Z,9.80
2023-01-15T16:19:16.113Z,10.20
2023-01-15T16:24:37.949Z,8.55
2023-01-15T16:30:00.069Z,9.70
2023-01-15T16:35:25.038Z,8.02
2023-01-15T16:40:47.271Z,8.88
2023-01-15T16:46:20.355Z,7.30
2023-01-15T16:51:42.239Z,9.50
2023-01-15T16:57:27.739Z,9.35
2023-01-15T17:02:49.625Z,8.13
2023-01-15T17:08:20.233Z,10.95
2023-01-15T17:13:42.048Z,8.50
2023-01-15T17:19:05.827Z,10.90
2023-01-15T17:24:27.645Z,10.20
2023-01-15T17:29:49.653Z,11.18
2023-01-15T17:35:35.333Z,11.27
2023-01-15T17:40:58.957Z,9.43
2023-01-15T17:46:20.824Z,9.60
2023-01-15T17:51:42.786Z,11.20
2023-01-15T17:57:04.661Z,9.93
2023-01-15T18:02:26.522Z,9.48
2023-01-15T18:07:48.458Z,11.27
2023-01-15T18:13:10.384Z,12.43
2023-01-15T18:18:32.192Z,12.48
2023-01-15T18:23:53.983Z,13.93
2023-01-15T18:29:15.817Z,11.63
2023-01-15T18:34:37.747Z,16.17
2023-01-15T18:40:00.051Z,11.70
2023-01-15T18:45:21.911Z,13.32
2023-01-15T18:50:43.774Z,13.55
2023-01-15T18:56:05.993Z,12.40
2023-01-15T19:01:27.896Z,9.77
2023-01-15T19:06:49.816Z,11.48
2023-01-15T19:12:11.716Z,9.13
2023-01-15T19:17:33.730Z,11.48
2023-01-15T19:22:55.605Z,9.65
2023-01-15T19:28:20.240Z,11.88
2023-01-15T19:33:42.318Z,8.65
2023-01-15T19:39:04.422Z,8.50
2023-01-15T19:44:26.387Z,6.05
2023-01-15T19:49:48.301Z,6.25
2023-01-15T19:55:11.201Z,6.13
2023-01-15T20:00:36.827Z,4.88
2023-01-15T20:05:58.808Z,5.10
2023-01-15T20:11:20.773Z,5.80
2023-01-15T20:16:42.658Z,5.22
2023-01-15T20:22:04.545Z,5.45
2023-01-15T20:27:26.430Z,5.80
2023-01-15T20:32:48.705Z,6.50
2023-01-15T20:38:10.582Z,6.05
2023-01-15T20:43:32.594Z,5.97
2023-01-15T20:48:54.437Z,7.65
2023-01-15T20:54:16.326Z,7.43
2023-01-15T20:59:38.162Z,9.30
2023-01-15T21:05:00.098Z,7.63
2023-01-15T21:10:23.010Z,8.65
2023-01-15T21:15:44.866Z,9.00
2023-01-15T21:21:14.305Z,10.00
2023-01-15T21:26:37.085Z,8.65
2023-01-15T21:31:59.039Z,8.75
2023-01-15T21:37:21.028Z,6.82
2023-01-15T21:42:42.889Z,8.27
2023-01-15T21:48:04.842Z,9.13
2023-01-15T21:53:26.667Z,6.93
2023-01-15T21:58:48.540Z,9.45
2023-01-15T22:04:10.359Z,6.00
2023-01-15T22:09:32.295Z,5.72
2023-01-15T22:14:54.153Z,6.93
2023-01-15T22:20:16.172Z,7.97
2023-01-15T22:25:38.047Z,6.75
2023-01-15T22:30:59.938Z,7.80
2023-01-15T22:36:21.841Z,6.53
2023-01-15T22:41:44.802Z,6.45
2023-01-15T22:47:06.947Z,7.40
2023-01-15T22:52:28.819Z,7.38
2023-01-15T22:57:50.650Z,9.20
2023-01-15T23:03:12.490Z,7.38
2023-01-15T23:08:35.662Z,6.35
2023-01-15T23:13:57.519Z,7.60
2023-01-15T23:19:20.035Z,5.40
2023-01-15T23:24:41.904Z,5.95
2023-01-15T23:30:04.934Z,6.45
2023-01-15T23:35:26.775Z,5.75
2023-01-15T23:40:48.627Z,7.18
2023-01-15T23:46:14.785Z,9.30
2023-01-15T23:51:37.621Z,7.07
2023-01-15T23:57:00.911Z,6.22
